createdAt,value
2023-05-11T00:01:10.339Z,42.17
2023-05-11T00:03:38.436Z,42.11
2023-05-11T00:06:05.954Z,41.47
2023-05-11T00:08:33.388Z,41.75
2023-05-11T00:11:01.561Z,42.40
2023-05-11T00:13:29.046Z,42.23
2023-05-11T00:15:56.517Z,41.37
2023-05-11T00:18:24.257Z,42.33
2023-05-11T00:20:51.592Z,42.82
2023-05-11T00:23:18.934Z,42.37
2023-05-11T00:25:46.584Z,42.01
2023-05-11T00:28:13.925Z,42.81
2023-05-11T00:30:41.448Z,42.77
2023-05-11T00:33:09.093Z,42.86
2023-05-11T00:35:36.473Z,43.24
2023-05-11T00:38:03.853Z,42.79
2023-05-11T00:40:31.740Z,43.46
2023-05-11T00:42:59.125Z,43.89
2023-05-11T00:45:26.779Z,43.76
2023-05-11T00:47:54.446Z,44.09
2023-05-11T00:50:21.928Z,43.57
2023-05-11T00:52:49.306Z,42.90
2023-05-11T00:55:17.473Z,42.26
2023-05-11T00:57:44.870Z,44.19
2023-05-11T01:00:12.786Z,43.37
2023-05-11T01:02:40.727Z,42.05
2023-05-11T01:05:08.895Z,42.90
2023-05-11T01:07:48.921Z,42.79
2023-05-11T01:10:42.955Z,42.62
2023-05-11T01:13:10.180Z,43.07
2023-05-11T01:15:48.572Z,43.16
2023-05-11T01:18:30.118Z,42.88
2023-05-11T01:21:00.833Z,42.25
2023-05-11T01:23:46.865Z,42.30
2023-05-11T01:26:35.234Z,42.57
2023-05-11T01:29:20.883Z,42.01
2023-05-11T01:31:48.666Z,42.78
2023-05-11T01:34:21.518Z,42.20
2023-05-11T01:37:00.182Z,42.92
2023-05-11T01:39:33.126Z,42.61
2023-05-11T01:42:05.068Z,43.01
2023-05-11T01:44:32.447Z,42.68
2023-05-11T01:47:01.008Z,42.98
2023-05-11T01:49:29.873Z,42.97
2023-05-11T01:51:57.192Z,43.84
2023-05-11T01:54:24.542Z,43.56
2023-05-11T01:56:52.357Z,43.38
2023-05-11T01:59:19.841Z,42.91
2023-05-11T02:01:47.348Z,42.94
2023-05-11T02:04:15.006Z,44.09
2023-05-11T02:06:42.365Z,43.02
2023-05-11T02:09:10.085Z,43.54
2023-05-11T02:11:38.970Z,43.56
2023-05-11T02:14:06.369Z,43.71
2023-05-11T02:16:33.752Z,42.56
2023-05-11T02:19:01.446Z,42.75
2023-05-11T02:21:29.158Z,42.93
2023-05-11T02:23:56.599Z,43.05
2023-05-11T02:26:23.963Z,43.90
2023-05-11T02:28:51.913Z,44.30
2023-05-11T02:31:21.117Z,43.41
2023-05-11T02:33:52.124Z,42.27
2023-05-11T02:36:21.722Z,42.68
2023-05-11T02:38:50.375Z,43.40
2023-05-11T02:41:21.986Z,43.37
2023-05-11T02:43:51.406Z,43.04
2023-05-11T02:46:23.546Z,43.83
2023-05-11T02:48:54.445Z,44.48
2023-05-11T02:51:33.316Z,43.94
2023-05-11T02:54:01.326Z,44.21
2023-05-11T02:56:29.385Z,45.18
2023-05-11T02:58:56.981Z,44.75
2023-05-11T03:01:25.549Z,45.74
2023-05-11T03:03:53.753Z,44.93
2023-05-11T03:06:21.492Z,45.71
2023-05-11T03:08:49.161Z,45.09
2023-05-11T03:11:17.897Z,45.57
2023-05-11T03:13:46.021Z,45.97
2023-05-11T03:16:14.535Z,46.06
2023-05-11T03:18:42.030Z,45.96
2023-05-11T03:21:09.471Z,46.32
2023-05-11T03:23:37.123Z,46.06
2023-05-11T03:26:04.708Z,45.15
2023-05-11T03:28:32.130Z,46.08
2023-05-11T03:30:59.902Z,45.46
2023-05-11T03:33:27.269Z,45.60
2023-05-11T03:35:54.734Z,44.65
2023-05-11T03:38:23.471Z,45.73
2023-05-11T03:40:52.092Z,45.91
2023-05-11T03:43:19.892Z,46.01
2023-05-11T03:45:48.417Z,46.23
2023-05-11T03:48:16.600Z,45.54
2023-05-11T03:50:44.091Z,45.53
2023-05-11T03:53:12.019Z,45.31
2023-05-11T03:55:39.423Z,45.91
2023-05-11T03:58:08.848Z,45.51
2023-05-11T04:00:40.357Z,46.41
2023-05-11T04:03:08.858Z,46.10
2023-05-11T04:05:36.290Z,46.00
2023-05-11T04:08:04.512Z,46.09
2023-05-11T04:10:32.155Z,45.71
2023-05-11T04:12:59.525Z,44.53
2023-05-11T04:15:26.907Z,45.75
2023-05-11T04:17:54.532Z,44.93
2023-05-11T04:20:21.972Z,44.65
2023-05-11T04:22:49.331Z,44.23
2023-05-11T04:25:16.992Z,43.31
2023-05-11T04:27:45.709Z,44.30
2023-05-11T04:30:13.141Z,44.12
2023-05-11T04:32:40.853Z,43.65
2023-05-11T04:35:09.529Z,43.41
2023-05-11T04:37:37.532Z,46.02
2023-05-11T04:40:07.358Z,44.79
2023-05-11T04:42:35.111Z,43.55
2023-05-11T04:45:03.599Z,42.65
2023-05-11T04:47:32.712Z,43.86
2023-05-11T04:50:00.471Z,43.52
2023-05-11T04:52:27.979Z,41.12
2023-05-11T04:54:56.331Z,40.46
2023-05-11T04:57:24.285Z,42.25
2023-05-11T04:59:51.724Z,40.08
2023-05-11T05:02:19.391Z,38.76
2023-05-11T05:04:46.769Z,37.63
2023-05-11T05:07:15.067Z,36.70
2023-05-11T05:09:45.187Z,35.08
2023-05-11T05:12:13.918Z,34.36
2023-05-11T05:14:41.252Z,33.80
2023-05-11T05:17:09.036Z,34.06
2023-05-11T05:19:37.362Z,32.73
2023-05-11T05:22:05.925Z,30.47
2023-05-11T05:24:33.758Z,29.99
2023-05-11T05:27:01.837Z,28.98
2023-05-11T05:29:29.286Z,29.20
2023-05-11T05:31:59.941Z,28.20
2023-05-11T05:34:27.948Z,26.38
2023-05-11T05:36:55.361Z,24.67
2023-05-11T05:39:23.053Z,23.04
2023-05-11T05:41:51.137Z,23.97
2023-05-11T05:44:18.702Z,23.80
2023-05-11T05:46:46.412Z,23.78
2023-05-11T05:49:14.690Z,24.41
2023-05-11T05:51:42.953Z,24.11
2023-05-11T05:54:11.397Z,22.77
2023-05-11T05:56:40.586Z,24.22
2023-05-11T05:59:10.780Z,25.16
2023-05-11T06:01:44.220Z,22.56
2023-05-11T06:04:13.092Z,21.46
2023-05-11T06:06:40.718Z,21.71
2023-05-11T06:09:08.112Z,22.72
2023-05-11T06:11:35.723Z,24.39
2023-05-11T06:14:03.106Z,25.42
2023-05-11T06:16:31.145Z,24.28
2023-05-11T06:19:00.442Z,23.06
2023-05-11T06:21:28.118Z,24.90
2023-05-11T06:23:55.617Z,24.84
2023-05-11T06:26:25.384Z,26.66
2023-05-11T06:28:52.989Z,29.32
2023-05-11T06:31:20.475Z,27.33
2023-05-11T06:33:49.117Z,27.84
2023-05-11T06:36:19.087Z,24.99
2023-05-11T06:38:46.544Z,25.51
2023-05-11T06:41:14.234Z,27.26
2023-05-11T06:43:42.273Z,26.56
2023-05-11T06:46:17.671Z,25.36
2023-05-11T06:48:45.151Z,25.78
2023-05-11T06:51:12.563Z,24.55
2023-05-11T06:53:40.201Z,23.97
2023-05-11T06:56:08.212Z,25.40
2023-05-11T06:58:35.578Z,26.39
2023-05-11T07:01:07.736Z,25.85
2023-05-11T07:03:35.315Z,24.30
2023-05-11T07:06:03.359Z,23.16
2023-05-11T07:08:30.697Z,24.13
2023-05-11T07:10:58.287Z,24.19
2023-05-11T07:13:25.993Z,21.18
2023-05-11T07:15:54.648Z,21.02
2023-05-11T07:18:24.070Z,19.48
2023-05-11T07:20:51.801Z,19.88
2023-05-11T07:23:19.172Z,19.66
2023-05-11T07:25:46.504Z,20.48
2023-05-11T07:28:14.255Z,17.39
2023-05-11T07:30:41.595Z,18.06
2023-05-11T07:33:09.035Z,16.89
2023-05-11T07:35:36.975Z,19.15
2023-05-11T07:38:06.177Z,18.01
2023-05-11T07:40:33.814Z,18.01
2023-05-11T07:43:01.856Z,18.31
2023-05-11T07:45:29.237Z,20.88
2023-05-11T07:47:56.791Z,21.21
2023-05-11T07:50:24.966Z,20.63
2023-05-11T07:52:52.572Z,21.31
2023-05-11T07:55:24.911Z,17.99
2023-05-11T07:57:54.348Z,19.12
2023-05-11T08:00:21.971Z,21.38
2023-05-11T08:02:49.683Z,19.07
2023-05-11T08:05:17.639Z,18.14
2023-05-11T08:07:45.201Z,19.38
2023-05-11T08:10:12.954Z,16.80
2023-05-11T08:12:40.355Z,18.88
2023-05-11T08:15:08.202Z,20.85
2023-05-11T08:17:36.586Z,16.84
2023-05-11T08:20:07.360Z,15.84
2023-05-11T08:22:35.019Z,16.83
2023-05-11T08:25:03.647Z,15.79
2023-05-11T08:27:30.964Z,16.41
2023-05-11T08:29:58.419Z,17.54
2023-05-11T08:32:27.272Z,16.11
2023-05-11T08:34:55.133Z,15.27
2023-05-11T08:37:22.871Z,18.22
2023-05-11T08:39:51.285Z,20.71
2023-05-11T08:42:18.646Z,20.05
2023-05-11T08:44:46.025Z,18.92
2023-05-11T08:49:43.898Z,19.72
2023-05-11T08:52:11.332Z,19.30
2023-05-11T08:54:39.129Z,19.25
2023-05-11T08:57:07.161Z,20.09
2023-05-11T08:59:34.513Z,16.74
2023-05-11T09:02:02.269Z,14.81
2023-05-11T09:04:29.663Z,16.49
2023-05-11T09:06:57.630Z,14.25
2023-05-11T09:09:25.238Z,14.49
2023-05-11T09:11:54.140Z,16.32
2023-05-11T09:14:27.150Z,16.87
2023-05-11T09:16:55.081Z,15.89
2023-05-11T09:19:22.523Z,15.34
2023-05-11T09:21:52.130Z,13.73
2023-05-11T09:24:20.432Z,16.89
2023-05-11T09:26:48.008Z,15.32
2023-05-11T09:29:16.020Z,15.94
2023-05-11T09:31:44.879Z,14.26
2023-05-11T09:34:22.777Z,14.15
2023-05-11T09:36:55.218Z,16.06
2023-05-11T09:42:21.564Z,16.46
2023-05-11T09:44:48.936Z,15.32
2023-05-11T09:47:21.165Z,15.03
2023-05-11T09:49:48.918Z,14.46
2023-05-11T09:52:17.506Z,12.91
2023-05-11T09:54:46.435Z,14.42
2023-05-11T09:57:24.111Z,17.98
2023-05-11T09:59:51.784Z,18.04
2023-05-11T10:02:29.673Z,16.37
2023-05-11T10:04:58.471Z,15.30
2023-05-11T10:07:30.057Z,16.30
2023-05-11T10:10:04.880Z,17.59
2023-05-11T10:12:33.605Z,16.70
2023-05-11T10:15:02.594Z,17.04
2023-05-11T10:17:30.963Z,19.49
2023-05-11T10:19:58.536Z,18.50
2023-05-11T10:22:26.800Z,18.38
2023-05-11T10:24:54.783Z,17.26
2023-05-11T10:27:22.291Z,17.73
2023-05-11T10:29:50.516Z,17.95
2023-05-11T10:32:18.745Z,20.05
2023-05-11T10:34:46.724Z,17.87
2023-05-11T10:37:15.305Z,18.76
2023-05-11T10:39:43.408Z,18.71
2023-05-11T10:42:33.627Z,18.26
2023-05-11T10:45:27.249Z,19.40
2023-05-11T10:48:03.811Z,19.52
2023-05-11T10:50:46.718Z,20.93
2023-05-11T10:53:24.593Z,22.10
2023-05-11T10:56:13.558Z,23.06
2023-05-11T10:58:57.926Z,22.09
2023-05-11T11:01:40.837Z,23.26
2023-05-11T11:04:14.502Z,24.05
2023-05-11T11:06:43.143Z,24.30
2023-05-11T11:09:13.542Z,24.19
2023-05-11T11:11:47.879Z,25.87
2023-05-11T11:14:16.020Z,24.85
2023-05-11T11:17:14.640Z,24.85
2023-05-11T11:19:42.466Z,24.06
2023-05-11T11:22:34.792Z,23.31
2023-05-11T11:25:05.285Z,24.21
2023-05-11T11:27:41.937Z,24.27
2023-05-11T11:30:19.152Z,25.64
2023-05-11T11:32:53.597Z,24.20
2023-05-11T11:35:39.522Z,25.48
2023-05-11T11:38:08.011Z,25.97
2023-05-11T11:40:49.600Z,25.95
2023-05-11T11:43:25.896Z,24.29
2023-05-11T11:45:54.113Z,26.36
2023-05-11T11:48:22.795Z,25.94
2023-05-11T11:50:50.282Z,24.75
2023-05-11T11:53:36.404Z,25.76
2023-05-11T11:56:04.530Z,25.42
2023-05-11T11:58:41.131Z,24.50
2023-05-11T12:01:19.009Z,24.87
2023-05-11T12:03:47.702Z,26.29
2023-05-11T12:06:15.464Z,25.17
2023-05-11T12:08:43.593Z,26.04
2023-05-11T12:11:11.210Z,25.76
2023-05-11T12:13:38.589Z,25.50
2023-05-11T12:16:16.684Z,25.65
2023-05-11T12:18:55.350Z,24.95
2023-05-11T12:21:27.695Z,25.66
2023-05-11T12:24:02.521Z,24.14
2023-05-11T12:26:30.896Z,25.00
2023-05-11T12:29:14.533Z,26.08
2023-05-11T12:31:43.497Z,25.24
2023-05-11T12:34:17.913Z,25.24
2023-05-11T12:36:45.988Z,26.41
2023-05-11T12:39:24.036Z,26.36
2023-05-11T12:41:53.545Z,25.32
2023-05-11T12:44:22.686Z,24.70
2023-05-11T12:46:50.606Z,25.14
2023-05-11T12:52:02.200Z,23.86
2023-05-11T12:54:39.206Z,25.68
2023-05-11T12:57:08.399Z,26.65
2023-05-11T12:59:41.943Z,26.37
2023-05-11T13:02:10.261Z,26.65
2023-05-11T13:04:39.719Z,27.02
2023-05-11T13:07:07.208Z,26.27
2023-05-11T13:09:34.894Z,26.13
2023-05-11T13:12:13.411Z,26.31
2023-05-11T13:14:41.666Z,26.74
2023-05-11T13:17:09.062Z,25.99
2023-05-11T13:19:37.677Z,25.09
2023-05-11T13:22:05.843Z,24.89
2023-05-11T13:24:34.642Z,26.99
2023-05-11T13:27:02.321Z,26.13
2023-05-11T13:29:30.031Z,27.44
2023-05-11T13:31:57.437Z,27.28
2023-05-11T13:34:25.146Z,26.47
2023-05-11T13:36:52.777Z,28.21
2023-05-11T13:39:20.878Z,27.44
2023-05-11T13:41:48.582Z,25.79
2023-05-11T13:44:16.789Z,25.93
2023-05-11T13:46:44.211Z,27.18
2023-05-11T13:49:12.120Z,25.17
2023-05-11T13:51:39.741Z,26.16
2023-05-11T13:54:07.168Z,25.34
2023-05-11T13:56:34.601Z,25.31
2023-05-11T13:59:02.251Z,25.27
2023-05-11T14:01:29.720Z,24.14
2023-05-11T14:03:57.435Z,24.80
2023-05-11T14:06:25.154Z,25.31
2023-05-11T14:08:52.748Z,27.13
2023-05-11T14:11:21.078Z,26.36
2023-05-11T14:13:51.800Z,25.46
2023-05-11T14:16:19.806Z,24.39
2023-05-11T14:18:48.323Z,26.17
2023-05-11T14:21:16.086Z,25.85
2023-05-11T14:23:53.758Z,25.02
2023-05-11T14:26:30.011Z,26.29
2023-05-11T14:28:57.509Z,26.28
2023-05-11T14:31:26.011Z,25.53
2023-05-11T14:33:53.654Z,24.38
2023-05-11T14:36:21.398Z,24.75
2023-05-11T14:38:48.775Z,26.28
2023-05-11T14:41:16.428Z,26.07
2023-05-11T14:43:43.756Z,24.99
2023-05-11T14:46:11.270Z,25.26
2023-05-11T14:48:38.945Z,24.49
2023-05-11T14:51:06.441Z,24.52
2023-05-11T14:53:33.823Z,24.47
2023-05-11T14:56:01.445Z,25.15
2023-05-11T14:58:28.831Z,25.40
2023-05-11T15:00:56.276Z,25.23
2023-05-11T15:03:25.160Z,24.38
2023-05-11T15:05:52.577Z,23.85
2023-05-11T15:08:29.700Z,24.94
2023-05-11T15:10:58.132Z,26.79
2023-05-11T15:13:25.601Z,26.03
2023-05-11T15:15:53.056Z,26.89
2023-05-11T15:18:20.851Z,27.47
2023-05-11T15:20:48.264Z,26.34
2023-05-11T15:23:16.955Z,25.90
2023-05-11T15:25:45.355Z,26.46
2023-05-11T15:28:13.025Z,26.69
2023-05-11T15:30:41.642Z,26.38
2023-05-11T15:33:10.066Z,27.40
2023-05-11T15:35:37.914Z,26.30
2023-05-11T15:38:05.455Z,26.03
2023-05-11T15:40:33.253Z,26.32
2023-05-11T15:43:00.819Z,25.84
2023-05-11T15:45:29.118Z,26.00
2023-05-11T15:47:57.421Z,26.07
2023-05-11T15:50:25.180Z,26.89
2023-05-11T15:52:52.721Z,27.23
2023-05-11T15:55:20.311Z,27.16
2023-05-11T15:57:47.678Z,26.93
2023-05-11T16:00:15.772Z,26.86
2023-05-11T16:02:45.678Z,26.78
2023-05-11T16:05:13.236Z,26.70
2023-05-11T16:07:40.590Z,27.30
2023-05-11T16:10:08.780Z,28.45
2023-05-11T16:12:36.223Z,28.58
2023-05-11T16:15:03.770Z,28.99
2023-05-11T16:17:31.924Z,29.40
2023-05-11T16:20:00.463Z,29.45
2023-05-11T16:22:28.142Z,29.97
2023-05-11T16:24:55.757Z,30.10
2023-05-11T16:27:23.352Z,30.05
2023-05-11T16:29:52.242Z,30.45
2023-05-11T16:32:20.320Z,30.28
2023-05-11T16:34:47.658Z,30.77
2023-05-11T16:37:15.416Z,30.74
2023-05-11T16:39:43.038Z,30.80
2023-05-11T16:42:10.650Z,30.41
2023-05-11T16:44:38.025Z,31.26
2023-05-11T16:47:05.766Z,31.01
2023-05-11T16:49:33.468Z,30.29
2023-05-11T16:52:00.820Z,31.06
2023-05-11T16:54:29.138Z,30.77
2023-05-11T16:56:56.786Z,31.05
2023-05-11T16:59:24.171Z,30.89
2023-05-11T17:01:51.852Z,31.47
2023-05-11T17:04:19.236Z,30.94
2023-05-11T17:06:46.663Z,31.01
2023-05-11T17:09:14.319Z,33.22
2023-05-11T17:11:41.707Z,33.90
2023-05-11T17:14:09.057Z,33.63
2023-05-11T17:16:36.655Z,33.85
2023-05-11T17:19:04.116Z,34.93
2023-05-11T17:21:32.324Z,34.51
2023-05-11T17:23:59.917Z,34.13
2023-05-11T17:26:35.479Z,33.68
2023-05-11T17:29:11.414Z,34.08
2023-05-11T17:31:39.148Z,33.87
2023-05-11T17:34:08.696Z,34.31
2023-05-11T17:36:36.441Z,34.67
2023-05-11T17:39:03.847Z,35.55
2023-05-11T17:41:31.996Z,36.88
2023-05-11T17:43:59.715Z,36.28
2023-05-11T17:46:28.254Z,37.15
2023-05-11T17:48:56.106Z,37.71
2023-05-11T17:51:23.925Z,36.71
2023-05-11T17:53:51.336Z,36.72
2023-05-11T17:56:19.165Z,36.26
2023-05-11T17:58:47.611Z,35.27
2023-05-11T18:01:15.023Z,34.72
2023-05-11T18:03:42.842Z,34.93
2023-05-11T18:06:10.297Z,35.11
2023-05-11T18:08:38.360Z,35.31
2023-05-11T18:11:07.514Z,35.59
2023-05-11T18:13:35.588Z,34.77
2023-05-11T18:16:03.080Z,34.83
2023-05-11T18:18:30.791Z,36.33
2023-05-11T18:20:58.141Z,36.02
2023-05-11T18:23:25.499Z,37.39
2023-05-11T18:25:53.244Z,37.71
2023-05-11T18:28:20.583Z,38.38
2023-05-11T18:30:47.982Z,40.44
2023-05-11T18:33:15.727Z,41.78
2023-05-11T18:35:43.173Z,43.31
2023-05-11T18:38:10.544Z,44.06
2023-05-11T18:40:38.267Z,47.90
2023-05-11T18:43:05.607Z,46.33
2023-05-11T18:45:34.817Z,49.37
2023-05-11T18:48:03.623Z,49.55
2023-05-11T18:50:31.005Z,52.01
2023-05-11T18:52:58.415Z,52.34
2023-05-11T18:55:29.039Z,53.85
2023-05-11T18:57:58.573Z,53.58
2023-05-11T19:00:26.288Z,54.79
2023-05-11T19:02:54.724Z,54.96
2023-05-11T19:05:22.314Z,56.25
2023-05-11T19:07:49.920Z,56.74
2023-05-11T19:10:18.188Z,57.42
2023-05-11T19:12:46.189Z,57.89
2023-05-11T19:15:13.828Z,57.70
2023-05-11T19:17:41.336Z,60.48
2023-05-11T19:20:09.421Z,60.08
2023-05-11T19:22:37.077Z,59.49
2023-05-11T19:25:05.403Z,61.67
2023-05-11T19:27:32.914Z,60.07
2023-05-11T19:30:00.549Z,59.94
2023-05-11T19:32:28.010Z,60.27
2023-05-11T19:34:55.412Z,62.05
2023-05-11T19:37:23.021Z,61.10
2023-05-11T19:39:51.035Z,62.37
2023-05-11T19:42:25.868Z,62.66
2023-05-11T19:44:59.670Z,61.42
2023-05-11T19:47:27.148Z,62.25
2023-05-11T19:49:54.527Z,61.94
2023-05-11T19:52:22.172Z,62.29
2023-05-11T19:54:49.523Z,61.68
2023-05-11T19:57:17.333Z,62.32
2023-05-11T19:59:44.907Z,63.60
2023-05-11T20:02:12.278Z,63.40
2023-05-11T20:04:45.067Z,63.71
2023-05-11T20:07:12.435Z,63.71
2023-05-11T20:09:40.249Z,63.19
2023-05-11T20:12:07.671Z,65.01
2023-05-11T20:14:36.778Z,64.34
2023-05-11T20:17:05.060Z,64.36
2023-05-11T20:19:32.450Z,64.20
2023-05-11T20:21:59.819Z,64.33
2023-05-11T20:24:27.470Z,64.27
2023-05-11T20:26:54.822Z,63.61
2023-05-11T20:29:22.278Z,65.93
2023-05-11T20:31:49.971Z,64.69
2023-05-11T20:34:17.461Z,65.26
2023-05-11T20:36:44.872Z,65.18
2023-05-11T20:39:13.393Z,64.47
2023-05-11T20:41:40.873Z,62.71
2023-05-11T20:44:13.645Z,64.78
2023-05-11T20:46:41.301Z,65.25
2023-05-11T20:49:10.293Z,63.29
2023-05-11T20:51:37.686Z,65.48
2023-05-11T20:54:07.228Z,64.04
2023-05-11T20:56:34.637Z,64.80
2023-05-11T20:59:01.997Z,65.16
2023-05-11T21:01:29.655Z,64.38
2023-05-11T21:03:57.134Z,65.32
2023-05-11T21:06:24.489Z,66.06
2023-05-11T21:08:52.115Z,66.86
2023-05-11T21:11:19.486Z,67.03
2023-05-11T21:13:46.898Z,65.28
2023-05-11T21:16:14.552Z,65.25
2023-05-11T21:18:43.112Z,65.04
2023-05-11T21:21:10.485Z,66.11
2023-05-11T21:23:38.142Z,65.43
2023-05-11T21:26:05.560Z,66.43
2023-05-11T21:28:34.627Z,65.37
2023-05-11T21:31:02.275Z,64.06
2023-05-11T21:33:29.615Z,65.45
2023-05-11T21:35:57.199Z,64.94
2023-05-11T21:38:24.830Z,65.61
2023-05-11T21:40:55.278Z,64.86
2023-05-11T21:43:22.685Z,64.58
2023-05-11T21:45:50.485Z,66.01
2023-05-11T21:48:17.847Z,64.52
2023-05-11T21:50:45.319Z,66.16
2023-05-11T21:53:13.103Z,66.19
2023-05-11T21:55:40.464Z,67.36
2023-05-11T21:58:08.796Z,66.74
2023-05-11T22:00:37.326Z,67.85
2023-05-11T22:03:05.050Z,66.37
2023-05-11T22:05:32.438Z,65.52
2023-05-11T22:08:13.220Z,65.63
2023-05-11T22:10:43.061Z,67.57
2023-05-11T22:13:10.784Z,64.65
2023-05-11T22:15:38.315Z,65.89
2023-05-11T22:18:06.063Z,65.80
2023-05-11T22:20:33.479Z,65.34
2023-05-11T22:23:00.814Z,63.96
2023-05-11T22:25:28.458Z,65.76
2023-05-11T22:27:55.838Z,63.61
2023-05-11T22:30:23.302Z,63.96
2023-05-11T22:32:50.977Z,64.86
2023-05-11T22:35:18.431Z,66.62
2023-05-11T22:37:45.795Z,64.52
2023-05-11T22:40:13.366Z,63.54
2023-05-11T22:42:41.681Z,64.45
2023-05-11T22:45:09.520Z,64.08
2023-05-11T22:47:37.182Z,63.80
2023-05-11T22:50:04.820Z,63.27
2023-05-11T22:52:32.297Z,63.20
2023-05-11T22:54:59.890Z,61.97
2023-05-11T22:57:27.758Z,62.21
2023-05-11T22:59:55.141Z,62.43
2023-05-11T23:02:23.278Z,62.21
2023-05-11T23:04:51.950Z,61.02
2023-05-11T23:07:19.610Z,63.86
2023-05-11T23:09:47.606Z,64.71
2023-05-11T23:12:15.012Z,63.99
2023-05-11T23:14:42.374Z,63.33
2023-05-11T23:17:10.031Z,64.31
2023-05-11T23:19:37.425Z,63.98
2023-05-11T23:22:04.920Z,66.12
2023-05-11T23:24:32.526Z,64.07
2023-05-11T23:27:00.145Z,65.49
2023-05-11T23:29:27.949Z,67.48
2023-05-11T23:31:56.154Z,64.73
2023-05-11T23:34:23.479Z,63.80
2023-05-11T23:36:50.806Z,63.75
2023-05-11T23:39:18.590Z,63.92
2023-05-11T23:41:46.141Z,63.30
2023-05-11T23:44:13.493Z,64.98
2023-05-11T23:46:41.093Z,64.95
2023-05-11T23:49:08.491Z,63.80
2023-05-11T23:51:35.845Z,63.56
2023-05-11T23:54:03.513Z,64.30
2023-05-11T23:56:30.866Z,65.55
2023-05-11T23:58:58.194Z,65.26
